Terminal Aerodrome Forecast
Issued by NWS Hastings, NE

Home | Current Version | Previous Version | Text Only | Print | Product List | Glossary On
Versions: 1 2 3 4 5 6 7 8 9 10 11 12 13 14 15 16 17 18 19 20
000
FTUS43 KGID 282320
TAFGRI
TAF
KGRI 282320Z 2900/2924 01009KT P6SM OVC025
     FM290600 03007KT P6SM BKN040
     FM290900 04007KT P6SM VCSH OVC040
     FM291300 04008KT P6SM VCSH OVC010
     FM291600 05011KT P6SM VCSH OVC015
     FM291800 06012KT P6SM -SHRA OVC015=

USA.gov is the U.S. government's official web portal to all federal, state and local government web resources and services.